Time;durP1;ratioP1;P1;durP2;ratioP2;P2;SDS_P1;SDS_P2;PMS_P1;PMS_P2;Temp;Humidity;BMP_temperature;BMP_pressure;BME280_temperature;BME280_humidity;BME280_pressure;Samples;Min_cycle;Max_cycle;Signal;HPM_P1;HPM_P2
2021/10/19 00:00:52;;;;;;;64.00;31.80;;;;;;;;;;5035321;28;20390;-65
2021/10/19 00:03:17;;;;;;;74.88;34.28;;;;;;;;;;5034622;28;20112;-65
2021/10/19 00:05:43;;;;;;;64.00;30.92;;;;;;;;;;5035300;28;20494;-65
2021/10/19 00:08:08;;;;;;;59.63;28.67;;;;;;;;;;5034981;28;20105;-65
2021/10/19 00:10:33;;;;;;;60.60;31.08;;;;;;;;;;5034960;28;20470;-65
2021/10/19 00:12:59;;;;;;;65.75;30.45;;;;;;;;;;5035215;28;20079;-66
2021/10/19 00:15:24;;;;;;;72.00;31.90;;;;;;;;;;5034734;28;20435;-66
2021/10/19 00:17:50;;;;;;;66.95;30.75;;;;;;;;;;5035599;28;20032;-66
2021/10/19 00:20:15;;;;;;;59.50;29.40;;;;;;;;;;5035127;28;20025;-65
2021/10/19 00:22:41;;;;;;;65.20;33.15;;;;;;;;;;5034536;28;20033;-66
2021/10/19 00:25:06;;;;;;;66.88;33.70;;;;;;;;;;5035071;28;20021;-66
2021/10/19 00:27:32;;;;;;;69.00;32.47;;;;;;;;;;5034748;28;20024;-66
2021/10/19 00:29:57;;;;;;;61.58;31.38;;;;;;;;;;5034542;28;20035;-66
2021/10/19 00:32:22;;;;;;;73.30;32.13;;;;;;;;;;5034339;28;20017;-66
2021/10/19 00:34:48;;;;;;;69.75;31.38;;;;;;;;;;5034635;28;20040;-66
2021/10/19 00:37:13;;;;;;;66.70;32.70;;;;;;;;;;5034439;28;20026;-66
2021/10/19 00:39:38;;;;;;;65.00;30.77;;;;;;;;;;5034711;28;20022;-66
2021/10/19 00:42:04;;;;;;;67.53;31.75;;;;;;;;;;5034268;28;20052;-66
2021/10/19 00:44:29;;;;;;;62.60;30.80;;;;;;;;;;5034256;28;20032;-66
2021/10/19 00:46:57;;;;;;;63.90;31.42;;;;;;;;;;5034547;28;20067;-66
2021/10/19 00:49:22;;;;;;;67.05;30.92;;;;;;;;;;5034656;28;20014;-66
2021/10/19 00:51:47;;;;;;;65.32;33.38;;;;;;;;;;5034103;28;20018;-66
2021/10/19 00:54:14;;;;;;;72.40;31.33;;;;;;;;;;5032522;28;20025;-65
2021/10/19 00:56:39;;;;;;;68.18;32.25;;;;;;;;;;5032638;28;20029;-66
2021/10/19 00:59:05;;;;;;;58.25;31.80;;;;;;;;;;5034044;28;20020;-65
2021/10/19 01:01:30;;;;;;;61.83;32.05;;;;;;;;;;5033919;28;20093;-66
2021/10/19 01:03:56;;;;;;;64.18;30.95;;;;;;;;;;5033471;28;20196;-65
2021/10/19 01:06:21;;;;;;;62.50;30.55;;;;;;;;;;5033786;28;20079;-65
2021/10/19 01:08:46;;;;;;;62.00;32.13;;;;;;;;;;5033940;28;20056;-65
2021/10/19 01:11:12;;;;;;;60.92;31.40;;;;;;;;;;5032408;28;20021;-66
2021/10/19 01:13:37;;;;;;;62.75;31.90;;;;;;;;;;5033679;28;20387;-66
2021/10/19 01:16:04;;;;;;;63.95;29.95;;;;;;;;;;5032491;28;20021;-66
2021/10/19 01:18:29;;;;;;;64.25;31.77;;;;;;;;;;5032375;28;20023;-66
2021/10/19 01:20:54;;;;;;;62.10;29.50;;;;;;;;;;5033451;28;20093;-66
2021/10/19 01:23:19;;;;;;;61.28;28.85;;;;;;;;;;5031756;28;20481;-66
2021/10/19 01:25:45;;;;;;;57.40;29.52;;;;;;;;;;5033476;28;20021;-66
2021/10/19 01:28:10;;;;;;;61.15;31.45;;;;;;;;;;5033319;28;20068;-66
2021/10/19 01:30:40;;;;;;;64.80;30.58;;;;;;;;;;5033394;28;20067;-66
2021/10/19 01:33:05;;;;;;;60.53;31.40;;;;;;;;;;5032982;28;20021;-66
2021/10/19 01:35:35;;;;;;;62.35;29.77;;;;;;;;;;5033338;28;20094;-66
2021/10/19 01:38:00;;;;;;;;;;;;;;;;;;5034055;28;20017;-66
2021/10/19 01:40:25;;;;;;;57.50;29.25;;;;;;;;;;5033148;28;19912;-66
2021/10/19 01:42:50;;;;;;;55.97;28.83;;;;;;;;;;5033077;28;20028;-66
2021/10/19 01:45:17;;;;;;;57.47;30.45;;;;;;;;;;5033350;28;20429;-65
2021/10/19 01:47:43;;;;;;;57.95;30.17;;;;;;;;;;5033340;28;20030;-65
2021/10/19 01:50:09;;;;;;;61.47;33.13;;;;;;;;;;5033358;28;20374;-66
2021/10/19 01:52:35;;;;;;;59.22;30.70;;;;;;;;;;5031331;28;20017;-66
2021/10/19 01:55:00;;;;;;;56.63;30.17;;;;;;;;;;5032483;28;20018;-66
2021/10/19 01:57:25;;;;;;;61.17;30.10;;;;;;;;;;5032861;28;20462;-66
2021/10/19 01:59:51;;;;;;;59.42;28.60;;;;;;;;;;5032794;28;20017;-66
2021/10/19 02:02:16;;;;;;;59.45;29.83;;;;;;;;;;5031118;28;20037;-66
2021/10/19 02:04:41;;;;;;;57.35;30.48;;;;;;;;;;5032543;28;20083;-65
2021/10/19 02:07:06;;;;;;;62.05;32.47;;;;;;;;;;5031662;28;20017;-66
2021/10/19 02:09:32;;;;;;;66.18;31.17;;;;;;;;;;5032897;28;20435;-66
2021/10/19 02:11:57;;;;;;;68.68;31.30;;;;;;;;;;5032895;28;20013;-66
2021/10/19 02:14:22;;;;;;;63.65;29.95;;;;;;;;;;5037147;28;20045;-66
2021/10/19 02:16:47;;;;;;;67.95;30.33;;;;;;;;;;5037038;28;20485;-66
2021/10/19 02:19:13;;;;;;;62.38;29.27;;;;;;;;;;5037176;28;20020;-66
2021/10/19 02:21:38;;;;;;;63.47;30.70;;;;;;;;;;5036848;28;20126;-66
2021/10/19 02:24:03;;;;;;;68.43;32.55;;;;;;;;;;5035516;28;20044;-65
2021/10/19 02:26:29;;;;;;;63.90;32.45;;;;;;;;;;5036910;28;20018;-66
2021/10/19 02:28:54;;;;;;;69.25;31.88;;;;;;;;;;5036916;28;20474;-65
2021/10/19 02:31:19;;;;;;;67.45;31.38;;;;;;;;;;5036706;28;20025;-65
2021/10/19 02:33:44;;;;;;;63.83;30.70;;;;;;;;;;5036500;28;20048;-66
2021/10/19 02:36:10;;;;;;;61.30;30.08;;;;;;;;;;5036837;28;20017;-66
2021/10/19 02:38:35;;;;;;;59.92;31.23;;;;;;;;;;5036274;28;20028;-66
2021/10/19 02:41:00;;;;;;;68.63;31.52;;;;;;;;;;5036473;28;20025;-66
2021/10/19 02:43:25;;;;;;;65.55;31.30;;;;;;;;;;5036455;28;20030;-65
2021/10/19 02:45:51;;;;;;;68.10;31.45;;;;;;;;;;5036537;28;20021;-66
2021/10/19 02:48:16;;;;;;;61.50;29.08;;;;;;;;;;5035446;28;20063;-66
2021/10/19 02:50:41;;;;;;;58.60;29.30;;;;;;;;;;5036504;28;20095;-66
2021/10/19 02:53:06;;;;;;;67.00;30.88;;;;;;;;;;5036221;28;20084;-66
2021/10/19 02:55:32;;;;;;;57.75;28.70;;;;;;;;;;5036167;28;20025;-66
2021/10/19 02:57:57;;;;;;;56.00;30.45;;;;;;;;;;5036135;28;20032;-65
2021/10/19 03:00:22;;;;;;;52.28;29.17;;;;;;;;;;5036056;28;20013;-66
2021/10/19 03:02:48;;;;;;;56.60;28.33;;;;;;;;;;5035836;28;20128;-66
2021/10/19 03:05:15;;;;;;;56.95;28.02;;;;;;;;;;5036088;28;20375;-66
2021/10/19 03:07:40;;;;;;;52.72;27.90;;;;;;;;;;5036029;28;20493;-66
2021/10/19 03:10:06;;;;;;;52.92;28.30;;;;;;;;;;5036045;28;20022;-66
2021/10/19 03:12:31;;;;;;;51.72;27.63;;;;;;;;;;5035613;28;20014;-66
2021/10/19 03:14:56;;;;;;;55.90;28.85;;;;;;;;;;5035986;28;20021;-66
2021/10/19 03:17:21;;;;;;;62.53;31.15;;;;;;;;;;5035895;28;20020;-66
2021/10/19 03:19:47;;;;;;;56.15;29.02;;;;;;;;;;5034708;28;20122;-66
2021/10/19 03:22:12;;;;;;;57.90;28.52;;;;;;;;;;5035739;28;20022;-66
2021/10/19 03:24:37;;;;;;;52.58;27.98;;;;;;;;;;5035712;28;20385;-66
2021/10/19 03:27:02;;;;;;;62.92;30.42;;;;;;;;;;5035898;28;20010;-66
2021/10/19 03:29:28;;;;;;;56.53;29.00;;;;;;;;;;5035755;28;20024;-66
2021/10/19 03:31:53;;;;;;;53.72;28.52;;;;;;;;;;5034058;28;20025;-66
2021/10/19 03:34:19;;;;;;;58.15;29.42;;;;;;;;;;5035326;28;20079;-66
2021/10/19 03:36:44;;;;;;;54.05;27.85;;;;;;;;;;5035535;28;20021;-66
2021/10/19 03:39:09;;;;;;;56.60;27.73;;;;;;;;;;5035813;28;20009;-66
2021/10/19 03:41:35;;;;;;;63.25;28.77;;;;;;;;;;5035664;28;20104;-66
2021/10/19 03:44:00;;;;;;;55.83;28.95;;;;;;;;;;5035616;28;20026;-66
2021/10/19 03:46:25;;;;;;;61.75;29.40;;;;;;;;;;5035486;28;20156;-66
2021/10/19 03:48:50;;;;;;;54.42;27.90;;;;;;;;;;5035407;28;20135;-65
2021/10/19 03:51:16;;;;;;;56.50;28.27;;;;;;;;;;5035377;28;20018;-65
2021/10/19 03:53:41;;;;;;;52.47;27.08;;;;;;;;;;5034974;28;20048;-66
2021/10/19 03:56:06;;;;;;;63.28;28.15;;;;;;;;;;5035349;28;20013;-66
2021/10/19 03:58:32;;;;;;;56.05;28.77;;;;;;;;;;5035250;28;20107;-66
2021/10/19 04:00:57;;;;;;;62.45;30.33;;;;;;;;;;5035408;28;20029;-65
2021/10/19 04:03:23;;;;;;;55.50;27.08;;;;;;;;;;5034616;28;20033;-66
2021/10/19 04:05:48;;;;;;;61.58;30.23;;;;;;;;;;5033491;28;20048;-66
2021/10/19 04:08:13;;;;;;;89.70;42.35;;;;;;;;;;5033748;28;20436;-66
2021/10/19 04:10:38;;;;;;;122.35;51.60;;;;;;;;;;5034573;28;20028;-66
2021/10/19 04:13:04;;;;;;;124.97;54.72;;;;;;;;;;5034810;28;20025;-66
2021/10/19 04:15:29;;;;;;;118.45;51.55;;;;;;;;;;5033432;28;20017;-65
2021/10/19 04:17:54;;;;;;;191.50;72.00;;;;;;;;;;5035154;28;20033;-65
2021/10/19 04:20:20;;;;;;;139.15;56.13;;;;;;;;;;5034818;28;20485;-66
2021/10/19 04:22:45;;;;;;;115.60;50.60;;;;;;;;;;5033259;28;20030;-66
2021/10/19 04:25:10;;;;;;;207.68;82.22;;;;;;;;;;5034579;28;20481;-66
2021/10/19 04:27:36;;;;;;;184.57;75.20;;;;;;;;;;5034466;28;20017;-65
2021/10/19 04:30:01;;;;;;;106.70;45.53;;;;;;;;;;5034703;28;20017;-66
2021/10/19 04:32:26;;;;;;;86.70;40.58;;;;;;;;;;5034044;28;20021;-66
2021/10/19 04:34:51;;;;;;;92.07;41.97;;;;;;;;;;5034046;28;20045;-66
2021/10/19 04:37:17;;;;;;;100.13;42.83;;;;;;;;;;5034465;28;20024;-66
2021/10/19 04:39:42;;;;;;;111.72;47.58;;;;;;;;;;5034196;28;20080;-66
2021/10/19 04:42:08;;;;;;;191.63;75.00;;;;;;;;;;5034418;28;20030;-66
2021/10/19 04:44:33;;;;;;;155.65;64.25;;;;;;;;;;5032993;28;20013;-66
2021/10/19 04:46:58;;;;;;;120.28;52.20;;;;;;;;;;5034227;28;20511;-66
2021/10/19 04:49:23;;;;;;;126.85;53.05;;;;;;;;;;5033178;28;20096;-66
2021/10/19 04:51:49;;;;;;;107.80;49.17;;;;;;;;;;5034164;28;20025;-65
2021/10/19 04:54:14;;;;;;;116.38;46.95;;;;;;;;;;5034015;28;20093;-66
2021/10/19 04:56:39;;;;;;;117.75;45.25;;;;;;;;;;5034399;28;20021;-65
2021/10/19 04:59:05;;;;;;;104.72;45.20;;;;;;;;;;5033840;28;20388;-65
2021/10/19 05:01:30;;;;;;;97.13;42.00;;;;;;;;;;5033734;28;20018;-66
2021/10/19 05:03:55;;;;;;;99.25;41.40;;;;;;;;;;5033369;28;20017;-66
2021/10/19 05:06:21;;;;;;;96.32;41.03;;;;;;;;;;5033636;28;20068;-65
2021/10/19 05:08:46;;;;;;;92.75;39.38;;;;;;;;;;5033487;28;20024;-66
2021/10/19 05:11:11;;;;;;;104.80;42.83;;;;;;;;;;5034035;28;20084;-66
2021/10/19 05:13:37;;;;;;;107.25;43.17;;;;;;;;;;5033426;28;20030;-66
2021/10/19 05:16:02;;;;;;;110.50;45.13;;;;;;;;;;5033711;28;20466;-66
2021/10/19 05:18:27;;;;;;;114.20;45.60;;;;;;;;;;5032879;28;20022;-65
2021/10/19 05:20:53;;;;;;;107.97;42.10;;;;;;;;;;5033466;28;20028;-66
2021/10/19 05:23:18;;;;;;;94.40;42.13;;;;;;;;;;5032193;28;20057;-66
2021/10/19 05:25:43;;;;;;;84.90;39.75;;;;;;;;;;5033610;28;20017;-65
2021/10/19 05:28:09;;;;;;;83.75;37.33;;;;;;;;;;5033429;28;20037;-66
2021/10/19 05:30:34;;;;;;;93.72;38.40;;;;;;;;;;5033545;28;20063;-66
2021/10/19 05:32:59;;;;;;;92.90;38.03;;;;;;;;;;5032963;28;20025;-66
2021/10/19 05:35:25;;;;;;;77.88;35.13;;;;;;;;;;5033216;28;20025;-66
2021/10/19 05:37:50;;;;;;;81.25;36.28;;;;;;;;;;5031960;28;20025;-65
2021/10/19 05:40:15;;;;;;;82.95;35.65;;;;;;;;;;5015612;28;20022;-65
2021/10/19 05:42:40;;;;;;;84.60;35.13;;;;;;;;;;5013285;28;20041;-66
2021/10/19 05:45:06;;;;;;;81.20;33.97;;;;;;;;;;5028959;28;20093;-65
2021/10/19 05:47:31;;;;;;;78.82;34.17;;;;;;;;;;5031662;28;20036;-65
2021/10/19 05:49:56;;;;;;;80.95;34.17;;;;;;;;;;5032429;28;20037;-66
2021/10/19 05:52:22;;;;;;;70.80;33.63;;;;;;;;;;5032446;28;20027;-66
2021/10/19 05:54:47;;;;;;;68.60;32.25;;;;;;;;;;5032042;28;20465;-66
2021/10/19 05:57:12;;;;;;;70.35;33.05;;;;;;;;;;5032414;28;20010;-66
2021/10/19 05:59:38;;;;;;;76.05;30.10;;;;;;;;;;5031881;28;20029;-66
2021/10/19 06:02:03;;;;;;;63.72;31.42;;;;;;;;;;5031295;28;20488;-66
2021/10/19 06:04:28;;;;;;;72.25;31.75;;;;;;;;;;5029555;28;20080;-62
2021/10/19 06:06:58;;;;;;;59.40;29.88;;;;;;;;;;5030415;28;20025;-64
2021/10/19 06:09:23;;;;;;;76.63;29.52;;;;;;;;;;5024112;28;20018;-63
2021/10/19 06:11:48;;;;;;;63.75;30.60;;;;;;;;;;5025744;28;20026;-65
2021/10/19 06:14:14;;;;;;;74.90;29.38;;;;;;;;;;5012838;28;20068;-66
2021/10/19 06:16:40;;;;;;;64.03;27.70;;;;;;;;;;5018106;28;20033;-64
2021/10/19 06:19:05;;;;;;;56.72;29.38;;;;;;;;;;5024938;28;20120;-65
2021/10/19 06:21:30;;;;;;;54.08;27.48;;;;;;;;;;5025721;28;20022;-64
2021/10/19 06:23:55;;;;;;;70.68;29.95;;;;;;;;;;5030109;28;20616;-64
2021/10/19 06:26:21;;;;;;;64.63;29.70;;;;;;;;;;5028786;28;20049;-63
2021/10/19 06:28:46;;;;;;;59.83;32.88;;;;;;;;;;5026711;28;20014;-64
2021/10/19 06:31:11;;;;;;;62.20;27.63;;;;;;;;;;5021450;28;20398;-65
2021/10/19 06:33:36;;;;;;;34.72;18.30;;;;;;;;;;5029114;28;20017;-63
2021/10/19 06:36:03;;;;;;;48.25;25.80;;;;;;;;;;5028024;28;20048;-63
2021/10/19 06:38:28;;;;;;;65.97;25.85;;;;;;;;;;5028426;28;20029;-68
2021/10/19 06:40:53;;;;;;;51.40;25.88;;;;;;;;;;5029510;28;20367;-66
2021/10/19 06:43:19;;;;;;;55.40;24.15;;;;;;;;;;5025118;28;20497;-67
2021/10/19 06:45:44;;;;;;;55.17;25.90;;;;;;;;;;5031555;28;20022;-68
2021/10/19 06:48:09;;;;;;;47.03;25.38;;;;;;;;;;5027542;28;20021;-64
2021/10/19 06:50:36;;;;;;;51.55;26.88;;;;;;;;;;5030320;28;20374;-64
2021/10/19 06:53:01;;;;;;;47.60;25.55;;;;;;;;;;5029273;28;20057;-66
2021/10/19 06:55:26;;;;;;;45.17;24.42;;;;;;;;;;5029815;28;20052;-64
2021/10/19 06:57:52;;;;;;;42.20;23.77;;;;;;;;;;5026291;28;20026;-64
2021/10/19 07:00:17;;;;;;;38.05;23.00;;;;;;;;;;5034321;28;20272;-64
2021/10/19 07:02:43;;;;;;;32.33;21.15;;;;;;;;;;5035304;28;20021;-64
2021/10/19 07:05:08;;;;;;;48.03;23.73;;;;;;;;;;5035295;28;20128;-64
2021/10/19 07:07:34;;;;;;;56.95;24.95;;;;;;;;;;5035171;28;20417;-64
2021/10/19 07:10:00;;;;;;;31.52;20.92;;;;;;;;;;5035317;28;20377;-66
2021/10/19 07:12:26;;;;;;;34.25;21.27;;;;;;;;;;5035360;28;20104;-63
2021/10/19 07:14:51;;;;;;;39.53;22.25;;;;;;;;;;5035318;28;20097;-62
2021/10/19 07:17:16;;;;;;;35.72;22.20;;;;;;;;;;5035063;28;20036;-64
2021/10/19 07:19:42;;;;;;;34.78;22.05;;;;;;;;;;5035186;28;20032;-63
2021/10/19 07:22:08;;;;;;;36.70;20.52;;;;;;;;;;5034331;28;20381;-66
2021/10/19 07:24:33;;;;;;;45.35;21.58;;;;;;;;;;5035132;28;20040;-66
2021/10/19 07:26:58;;;;;;;37.65;24.15;;;;;;;;;;5032818;28;20085;-66
2021/10/19 07:29:23;;;;;;;42.97;25.42;;;;;;;;;;5022456;28;20029;-65
2021/10/19 07:31:49;;;;;;;44.25;24.50;;;;;;;;;;5024039;28;20029;-66
2021/10/19 07:34:14;;;;;;;41.58;23.95;;;;;;;;;;5034906;28;20470;-65
2021/10/19 07:36:39;;;;;;;33.58;20.58;;;;;;;;;;5034191;28;20025;-65
2021/10/19 07:39:05;;;;;;;39.65;25.38;;;;;;;;;;5035148;28;20466;-65
2021/10/19 07:41:30;;;;;;;38.53;23.25;;;;;;;;;;5022202;28;20021;-66
2021/10/19 07:43:56;;;;;;;33.92;23.10;;;;;;;;;;5026212;28;20036;-66
2021/10/19 07:46:21;;;;;;;38.88;20.33;;;;;;;;;;5032821;28;20020;-66
2021/10/19 07:48:46;;;;;;;36.80;20.70;;;;;;;;;;5034105;28;20364;-67
2021/10/19 07:51:11;;;;;;;33.57;20.33;;;;;;;;;;5024985;28;20029;-67
2021/10/19 07:53:40;;;;;;;40.03;22.25;;;;;;;;;;5034374;28;20266;-67
2021/10/19 07:56:05;;;;;;;30.40;18.77;;;;;;;;;;5026156;28;20543;-67
2021/10/19 07:58:31;;;;;;;37.00;20.47;;;;;;;;;;5026789;28;20026;-69
2021/10/19 08:00:56;;;;;;;34.45;18.00;;;;;;;;;;5024097;28;20785;-67
2021/10/19 08:03:21;;;;;;;32.47;17.70;;;;;;;;;;5028335;28;20091;-67
2021/10/19 08:05:47;;;;;;;30.38;17.30;;;;;;;;;;5024306;28;20281;-68
2021/10/19 08:08:13;;;;;;;29.67;14.55;;;;;;;;;;5032565;28;20064;-68
2021/10/19 08:10:39;;;;;;;23.83;15.75;;;;;;;;;;5027953;28;20018;-67
2021/10/19 08:13:04;;;;;;;24.77;15.73;;;;;;;;;;5033306;28;20471;-64
2021/10/19 08:15:30;;;;;;;31.02;16.80;;;;;;;;;;5033655;28;20148;-64
2021/10/19 08:17:55;;;;;;;24.63;17.40;;;;;;;;;;5029445;28;20013;-64
2021/10/19 08:20:20;;;;;;;31.70;16.27;;;;;;;;;;5028928;28;20033;-64
2021/10/19 08:22:45;;;;;;;29.97;16.00;;;;;;;;;;5034336;28;20032;-64
2021/10/19 08:25:11;;;;;;;29.95;16.67;;;;;;;;;;5027718;28;20269;-64
2021/10/19 08:27:38;;;;;;;26.67;16.23;;;;;;;;;;5024623;28;20018;-64
2021/10/19 08:30:04;;;;;;;28.77;16.80;;;;;;;;;;5031938;28;20029;-65
2021/10/19 08:32:30;;;;;;;27.85;17.42;;;;;;;;;;5032987;28;20105;-62
2021/10/19 08:34:55;;;;;;;29.13;16.95;;;;;;;;;;5020631;28;20466;-66
2021/10/19 08:37:20;;;;;;;35.17;16.13;;;;;;;;;;5031845;28;20014;-66
2021/10/19 08:39:46;;;;;;;25.42;14.35;;;;;;;;;;5034042;28;20071;-66
2021/10/19 08:42:12;;;;;;;23.40;14.87;;;;;;;;;;5028453;28;20025;-68
2021/10/19 08:44:38;;;;;;;22.27;13.32;;;;;;;;;;5031745;28;20270;-69
2021/10/19 08:47:03;;;;;;;22.67;14.15;;;;;;;;;;5031967;28;20017;-68
2021/10/19 08:49:28;;;;;;;21.65;12.75;;;;;;;;;;5034534;28;20016;-69
2021/10/19 08:51:54;;;;;;;20.58;10.32;;;;;;;;;;5026090;28;20026;-65
2021/10/19 08:54:19;;;;;;;21.17;12.18;;;;;;;;;;5025826;28;20024;-66
2021/10/19 08:56:44;;;;;;;20.60;11.25;;;;;;;;;;5032482;28;20097;-67
2021/10/19 08:59:10;;;;;;;13.88;9.57;;;;;;;;;;5029952;28;20029;-64
2021/10/19 09:01:39;;;;;;;18.70;9.27;;;;;;;;;;5032293;28;20017;-63
2021/10/19 09:04:06;;;;;;;21.02;10.23;;;;;;;;;;5031639;28;20022;-63
2021/10/19 09:06:33;;;;;;;18.35;10.50;;;;;;;;;;5032962;28;20042;-63
2021/10/19 09:09:03;;;;;;;16.65;10.27;;;;;;;;;;5033018;28;20029;-63
2021/10/19 09:11:36;;;;;;;14.93;9.02;;;;;;;;;;5032808;28;20036;-64
2021/10/19 09:14:01;;;;;;;13.00;7.90;;;;;;;;;;5032832;28;20439;-62
2021/10/19 09:16:35;;;;;;;15.10;8.45;;;;;;;;;;5032546;28;20096;-62
2021/10/19 09:19:01;;;;;;;11.88;6.90;;;;;;;;;;5032841;28;20035;-63
2021/10/19 09:21:27;;;;;;;8.93;5.38;;;;;;;;;;5032370;28;20100;-66
2021/10/19 09:23:52;;;;;;;11.73;7.80;;;;;;;;;;5031018;28;20029;-67
2021/10/19 09:26:17;;;;;;;9.03;6.40;;;;;;;;;;5015221;28;20391;-67
2021/10/19 09:28:42;;;;;;;9.93;6.77;;;;;;;;;;5026253;28;20258;-63
2021/10/19 09:31:26;;;;;;;11.33;5.77;;;;;;;;;;5032925;28;20284;-64
2021/10/19 09:33:58;;;;;;;11.43;6.43;;;;;;;;;;5017602;28;20271;-64
2021/10/19 09:36:33;;;;;;;9.70;6.70;;;;;;;;;;5047465;28;20100;-64
2021/10/19 09:38:58;;;;;;;17.20;7.28;;;;;;;;;;5027411;28;20018;-62
2021/10/19 09:41:23;;;;;;;10.97;7.33;;;;;;;;;;5032813;28;20009;-67
2021/10/19 09:43:48;;;;;;;9.17;6.83;;;;;;;;;;5024192;28;20340;-68
2021/10/19 09:46:14;;;;;;;12.00;7.37;;;;;;;;;;5030425;28;20751;-69
2021/10/19 09:48:40;;;;;;;13.83;7.50;;;;;;;;;;5031385;28;20699;-67
2021/10/19 09:51:05;;;;;;;19.20;7.05;;;;;;;;;;5029399;28;20255;-67
2021/10/19 09:53:31;;;;;;;14.37;7.47;;;;;;;;;;5029677;28;20087;-65
2021/10/19 09:55:57;;;;;;;11.10;6.90;;;;;;;;;;5031002;28;20255;-65
2021/10/19 09:58:25;;;;;;;10.30;6.55;;;;;;;;;;5031302;28;20101;-64
2021/10/19 10:00:51;;;;;;;14.77;9.18;;;;;;;;;;5028639;28;20022;-64
2021/10/19 10:03:16;;;;;;;11.23;6.15;;;;;;;;;;5028398;28;20029;-65
2021/10/19 10:05:42;;;;;;;12.65;6.93;;;;;;;;;;5017112;28;20045;-65
2021/10/19 10:08:17;;;;;;;10.93;7.05;;;;;;;;;;5029396;28;20025;-65
2021/10/19 10:10:43;;;;;;;14.30;7.07;;;;;;;;;;5028997;28;20383;-64
2021/10/19 10:13:13;;;;;;;15.13;7.90;;;;;;;;;;5028345;28;20036;-64
2021/10/19 10:15:38;;;;;;;8.73;5.55;;;;;;;;;;5028570;28;20029;-65
2021/10/19 10:18:05;;;;;;;12.88;5.97;;;;;;;;;;5028269;28;20017;-67
2021/10/19 10:20:41;;;;;;;9.18;5.68;;;;;;;;;;5028819;28;20021;-66
2021/10/19 10:23:11;;;;;;;15.35;7.28;;;;;;;;;;5025185;28;20029;-65
2021/10/19 10:25:37;;;;;;;9.27;5.78;;;;;;;;;;5029251;28;20029;-66
2021/10/19 10:28:08;;;;;;;11.10;5.95;;;;;;;;;;5030178;28;20029;-65
2021/10/19 10:30:37;;;;;;;11.68;5.13;;;;;;;;;;5029810;28;20108;-65
2021/10/19 10:33:06;;;;;;;10.30;5.30;;;;;;;;;;5030864;28;20370;-65
2021/10/19 10:35:32;;;;;;;8.88;5.80;;;;;;;;;;5031966;28;20481;-65
2021/10/19 10:37:57;;;;;;;8.77;5.43;;;;;;;;;;5034133;28;20063;-64
2021/10/19 10:40:33;;;;;;;13.40;6.93;;;;;;;;;;5034421;28;20014;-64
2021/10/19 10:42:59;;;;;;;12.32;6.43;;;;;;;;;;5033910;28;20026;-65
2021/10/19 10:45:28;;;;;;;13.30;6.97;;;;;;;;;;5034289;28;20413;-65
2021/10/19 10:47:55;;;;;;;11.32;6.43;;;;;;;;;;5033810;28;20025;-65
2021/10/19 10:50:20;;;;;;;9.93;6.78;;;;;;;;;;5034519;28;20021;-65
2021/10/19 10:53:15;;;;;;;12.98;6.63;;;;;;;;;;5034096;28;20071;-65
2021/10/19 10:55:42;;;;;;;10.38;6.72;;;;;;;;;;5031150;28;20099;-65
2021/10/19 10:58:07;;;;;;;11.38;6.82;;;;;;;;;;5034079;28;20077;-65
2021/10/19 11:00:33;;;;;;;9.88;5.88;;;;;;;;;;5034348;28;20455;-65
2021/10/19 11:03:08;;;;;;;6.80;5.57;;;;;;;;;;5033702;28;20059;-65
2021/10/19 11:05:37;;;;;;;8.93;5.82;;;;;;;;;;5033133;28;20049;-65
2021/10/19 11:08:03;;;;;;;;;;;;;;;;;;5033922;28;20025;-65
2021/10/19 11:10:28;;;;;;;7.80;4.93;;;;;;;;;;5033886;28;19958;-65
2021/10/19 11:13:01;;;;;;;7.50;4.55;;;;;;;;;;5032265;28;20033;-65
2021/10/19 11:15:26;;;;;;;8.43;4.80;;;;;;;;;;5030661;28;20132;-66
2021/10/19 11:17:53;;;;;;;10.70;4.65;;;;;;;;;;5033158;28;20097;-65
2021/10/19 11:20:19;;;;;;;7.45;4.50;;;;;;;;;;5033109;28;20025;-65
2021/10/19 11:22:44;;;;;;;9.73;4.75;;;;;;;;;;5033202;28;20061;-64
2021/10/19 11:25:11;;;;;;;7.68;3.92;;;;;;;;;;5033528;28;20021;-64
2021/10/19 11:27:37;;;;;;;11.13;4.45;;;;;;;;;;5033410;28;20022;-65
2021/10/19 11:30:03;;;;;;;7.75;4.00;;;;;;;;;;5032852;28;20068;-65
2021/10/19 11:32:28;;;;;;;7.10;3.97;;;;;;;;;;5033040;28;20025;-66
2021/10/19 11:34:56;;;;;;;7.20;4.07;;;;;;;;;;5033919;28;20074;-66
2021/10/19 11:37:22;;;;;;;10.05;4.45;;;;;;;;;;5033659;28;20258;-66
2021/10/19 11:39:47;;;;;;;6.50;4.03;;;;;;;;;;5034044;28;20088;-65
2021/10/19 11:42:12;;;;;;;7.47;4.20;;;;;;;;;;5033775;28;20312;-65
2021/10/19 11:44:38;;;;;;;6.47;4.27;;;;;;;;;;5032045;28;20251;-65
2021/10/19 11:47:04;;;;;;;9.90;4.72;;;;;;;;;;5033682;28;20291;-66
2021/10/19 11:49:31;;;;;;;6.03;4.25;;;;;;;;;;5033310;28;20150;-64
2021/10/19 11:51:56;;;;;;;4.82;3.85;;;;;;;;;;5032282;28;20022;-65
2021/10/19 11:54:22;;;;;;;7.88;4.40;;;;;;;;;;5032976;28;20055;-67
2021/10/19 11:56:57;;;;;;;8.05;3.53;;;;;;;;;;5031139;28;20017;-66
2021/10/19 11:59:23;;;;;;;8.13;3.63;;;;;;;;;;5030999;28;20482;-65
2021/10/19 12:01:49;;;;;;;13.95;5.75;;;;;;;;;;5027127;28;20013;-67
2021/10/19 12:04:14;;;;;;;9.18;4.72;;;;;;;;;;5027880;28;20037;-61
2021/10/19 12:06:42;;;;;;;7.35;4.90;;;;;;;;;;5030149;28;20398;-62
2021/10/19 12:09:12;;;;;;;6.43;4.63;;;;;;;;;;5030605;28;20048;-62
2021/10/19 12:11:37;;;;;;;5.88;4.28;;;;;;;;;;5032090;28;20433;-60
2021/10/19 12:14:05;;;;;;;9.95;4.95;;;;;;;;;;5030748;28;20105;-65
2021/10/19 12:16:31;;;;;;;9.57;4.82;;;;;;;;;;5032321;28;20550;-66
2021/10/19 12:18:57;;;;;;;9.25;4.72;;;;;;;;;;5032277;28;20025;-65
2021/10/19 12:21:23;;;;;;;8.30;4.65;;;;;;;;;;5031213;28;20013;-64
2021/10/19 12:23:49;;;;;;;9.23;4.88;;;;;;;;;;5030581;28;20102;-64
2021/10/19 12:26:17;;;;;;;7.47;4.85;;;;;;;;;;5029823;28;20512;-64
2021/10/19 12:28:47;;;;;;;8.55;4.70;;;;;;;;;;5030622;28;20026;-65
2021/10/19 12:31:13;;;;;;;8.73;4.35;;;;;;;;;;5031967;28;20017;-66
2021/10/19 12:33:38;;;;;;;10.98;5.13;;;;;;;;;;5030378;28;20036;-61
2021/10/19 12:36:09;;;;;;;7.45;4.57;;;;;;;;;;5028300;28;20049;-63
2021/10/19 12:38:39;;;;;;;8.55;4.68;;;;;;;;;;5031086;28;20022;-65
2021/10/19 12:41:09;;;;;;;6.15;4.13;;;;;;;;;;5024207;28;20379;-66
2021/10/19 12:43:35;;;;;;;8.90;4.85;;;;;;;;;;5028847;28;20030;-67
2021/10/19 12:46:01;;;;;;;22.55;5.22;;;;;;;;;;5031500;28;20024;-65
2021/10/19 12:48:32;;;;;;;12.98;5.95;;;;;;;;;;5027543;28;20072;-65
2021/10/19 12:50:57;;;;;;;6.25;4.30;;;;;;;;;;5029448;28;20036;-65
2021/10/19 12:53:22;;;;;;;8.60;4.20;;;;;;;;;;5029032;28;20421;-66
2021/10/19 12:55:48;;;;;;;6.60;4.28;;;;;;;;;;5028008;28;20282;-65
2021/10/19 12:58:13;;;;;;;7.13;4.30;;;;;;;;;;5024066;28;20075;-66
2021/10/19 13:00:38;;;;;;;6.43;3.80;;;;;;;;;;5028260;28;20294;-66
2021/10/19 13:03:03;;;;;;;7.73;4.50;;;;;;;;;;5028396;28;20344;-67
2021/10/19 13:05:29;;;;;;;12.52;5.05;;;;;;;;;;5026276;28;20306;-67
2021/10/19 13:07:54;;;;;;;5.88;4.30;;;;;;;;;;5031379;28;20035;-66
2021/10/19 13:10:19;;;;;;;7.40;3.97;;;;;;;;;;5029480;28;20039;-66
2021/10/19 13:12:44;;;;;;;8.00;4.03;;;;;;;;;;5026546;28;21113;-65
2021/10/19 13:15:10;;;;;;;8.87;4.47;;;;;;;;;;5020534;28;20623;-65
2021/10/19 13:17:35;;;;;;;7.15;4.20;;;;;;;;;;5028324;28;20282;-64
2021/10/19 13:20:01;;;;;;;6.40;4.63;;;;;;;;;;5026807;28;20097;-66
2021/10/19 13:22:26;;;;;;;14.18;4.78;;;;;;;;;;5028626;28;20270;-66
2021/10/19 13:24:52;;;;;;;12.20;4.25;;;;;;;;;;5028698;28;20078;-65
2021/10/19 13:27:17;;;;;;;6.35;3.60;;;;;;;;;;5029461;28;20450;-66
2021/10/19 13:29:43;;;;;;;9.32;4.45;;;;;;;;;;5027388;28;20028;-67
2021/10/19 13:32:08;;;;;;;7.67;4.20;;;;;;;;;;5025129;28;20397;-65
2021/10/19 13:34:33;;;;;;;9.48;4.40;;;;;;;;;;5027351;28;20335;-64
2021/10/19 13:37:00;;;;;;;6.80;4.18;;;;;;;;;;5031258;28;20052;-65
2021/10/19 13:39:26;;;;;;;6.43;3.30;;;;;;;;;;5029641;28;20390;-65
2021/10/19 13:41:51;;;;;;;9.00;4.28;;;;;;;;;;5030157;28;20267;-65
2021/10/19 13:44:17;;;;;;;17.00;6.75;;;;;;;;;;5029266;28;20083;-65
2021/10/19 13:46:42;;;;;;;12.77;3.55;;;;;;;;;;5028302;28;20374;-65
2021/10/19 13:49:08;;;;;;;7.47;4.70;;;;;;;;;;5029056;28;20505;-66
2021/10/19 13:51:33;;;;;;;5.60;3.40;;;;;;;;;;5028318;28;20018;-65
2021/10/19 13:53:58;;;;;;;11.18;5.80;;;;;;;;;;5026852;28;20029;-65
2021/10/19 13:56:24;;;;;;;9.88;5.53;;;;;;;;;;5026054;28;20017;-64
2021/10/19 13:58:49;;;;;;;14.80;6.50;;;;;;;;;;5030363;28;20029;-64
2021/10/19 14:01:14;;;;;;;10.63;5.63;;;;;;;;;;5030803;28;20025;-65
2021/10/19 14:03:40;;;;;;;7.65;4.15;;;;;;;;;;5029195;28;20503;-64
2021/10/19 14:06:09;;;;;;;9.95;6.40;;;;;;;;;;5024674;28;20045;-64
2021/10/19 14:08:34;;;;;;;9.55;3.78;;;;;;;;;;5029100;28;20018;-63
2021/10/19 14:11:02;;;;;;;7.80;3.35;;;;;;;;;;5028660;28;20021;-63
2021/10/19 14:13:27;;;;;;;11.30;5.15;;;;;;;;;;5029081;28;20030;-63
2021/10/19 14:15:53;;;;;;;14.02;5.82;;;;;;;;;;5024052;28;20485;-67